createdAt,value
2017-09-12T00:01:20.999Z,99.99
2017-09-12T00:02:43.444Z,99.99
2017-09-12T00:04:05.563Z,99.99
2017-09-12T00:05:27.693Z,99.99
2017-09-12T00:06:49.203Z,99.99
2017-09-12T00:08:12.003Z,99.99
2017-09-12T00:09:33.826Z,99.99
2017-09-12T00:10:55.665Z,99.99
2017-09-12T00:12:17.823Z,99.99
2017-09-12T00:13:40.031Z,99.99
2017-09-12T00:15:02.237Z,99.99
2017-09-12T00:16:24.164Z,99.99
2017-09-12T00:17:46.294Z,99.99
2017-09-12T00:19:08.702Z,99.99
2017-09-12T00:20:30.520Z,99.99
2017-09-12T00:21:52.666Z,99.99
2017-09-12T00:23:14.843Z,99.99
2017-09-12T00:24:37.314Z,99.99
2017-09-12T00:25:58.804Z,99.99
2017-09-12T00:27:20.292Z,99.99
2017-09-12T00:28:42.116Z,99.99
2017-09-12T00:30:03.994Z,99.99
2017-09-12T00:31:26.131Z,99.99
2017-09-12T00:32:47.774Z,99.99
2017-09-12T00:34:09.726Z,99.99
2017-09-12T00:35:32.104Z,99.99
2017-09-12T00:36:54.244Z,99.99
2017-09-12T00:38:16.104Z,99.99
2017-09-12T00:39:38.544Z,99.99
2017-09-12T00:41:15.484Z,99.99
2017-09-12T00:42:37.311Z,99.99
2017-09-12T00:43:59.816Z,99.99
2017-09-12T00:45:21.960Z,99.99
2017-09-12T00:46:44.133Z,99.99
2017-09-12T00:48:05.945Z,99.99
2017-09-12T00:49:28.177Z,99.99
2017-09-12T00:50:49.994Z,99.99
2017-09-12T00:52:12.091Z,99.99
2017-09-12T00:53:33.989Z,99.99
2017-09-12T00:54:55.557Z,99.99
2017-09-12T00:56:17.804Z,99.99
2017-09-12T00:57:40.344Z,99.99
2017-09-12T00:59:02.160Z,99.99
2017-09-12T01:00:23.004Z,99.99
2017-09-12T01:01:44.500Z,99.99
2017-09-12T01:03:06.894Z,99.99
2017-09-12T01:04:28.700Z,99.99
2017-09-12T01:05:50.192Z,99.99
2017-09-12T01:07:12.334Z,99.99
2017-09-12T01:08:34.464Z,99.99
2017-09-12T01:09:56.957Z,99.99
2017-09-12T01:11:18.465Z,99.99
2017-09-12T01:12:40.715Z,99.99
2017-09-12T01:14:03.208Z,99.99
2017-09-12T01:15:25.444Z,99.99
2017-09-12T01:16:47.593Z,99.99
2017-09-12T01:18:09.514Z,99.99
2017-09-12T01:19:32.275Z,99.99
2017-09-12T01:20:54.105Z,99.99
2017-09-12T01:22:15.982Z,99.99
2017-09-12T01:23:38.098Z,99.99
2017-09-12T01:24:59.845Z,99.99
2017-09-12T01:26:21.395Z,99.99
2017-09-12T01:27:43.244Z,99.99
2017-09-12T01:29:05.715Z,99.99
2017-09-12T01:30:28.157Z,99.99
2017-09-12T01:31:49.652Z,99.99
2017-09-12T01:33:11.464Z,99.99
2017-09-12T01:34:33.585Z,99.99
2017-09-12T01:35:56.084Z,99.99
2017-09-12T01:37:18.534Z,99.99
2017-09-12T01:38:40.346Z,99.99
2017-09-12T01:40:02.483Z,99.99
2017-09-12T01:41:24.968Z,99.99
2017-09-12T01:42:46.786Z,99.99
2017-09-12T01:44:08.938Z,99.99
2017-09-12T01:45:30.744Z,99.99
2017-09-12T01:46:52.593Z,99.99
2017-09-12T01:48:14.445Z,99.99
2017-09-12T01:49:36.265Z,99.99
2017-09-12T01:50:57.764Z,99.99
2017-09-12T01:52:19.834Z,99.99
2017-09-12T01:53:41.336Z,99.99
2017-09-12T01:55:03.238Z,99.99
2017-09-12T01:56:25.674Z,99.99
2017-09-12T01:57:47.565Z,99.99
2017-09-12T01:59:09.396Z,99.99
2017-09-12T02:00:31.213Z,99.99
2017-09-12T02:01:53.054Z,99.99
2017-09-12T02:03:15.468Z,99.99
2017-09-12T02:04:37.670Z,99.99
2017-09-12T02:05:58.566Z,99.99
2017-09-12T02:07:20.715Z,99.99
2017-09-12T02:08:43.118Z,99.99
2017-09-12T02:10:05.267Z,99.99
2017-09-12T02:11:27.105Z,99.99
2017-09-12T02:12:49.255Z,99.99
2017-09-12T02:14:11.836Z,99.99
2017-09-12T02:15:33.633Z,99.99
2017-09-12T02:16:55.115Z,99.99
2017-09-12T02:18:16.625Z,99.99
2017-09-12T02:19:38.690Z,99.99
2017-09-12T02:21:00.954Z,99.99
2017-09-12T02:22:22.518Z,99.99
2017-09-12T02:23:43.691Z,99.99
2017-09-12T02:25:05.115Z,99.99
2017-09-12T02:26:26.635Z,99.99
2017-09-12T02:27:48.135Z,99.99
2017-09-12T02:29:09.305Z,99.99
2017-09-12T02:30:31.791Z,99.99
2017-09-12T02:31:53.582Z,99.99
2017-09-12T02:33:14.745Z,99.99
2017-09-12T02:34:36.861Z,99.99
2017-09-12T02:35:58.705Z,99.99
2017-09-12T02:37:21.161Z,99.99
2017-09-12T02:38:42.961Z,99.99
2017-09-12T02:40:05.134Z,99.99
2017-09-12T02:41:27.572Z,99.99
2017-09-12T02:42:50.004Z,99.99
2017-09-12T02:44:12.137Z,99.99
2017-09-12T02:45:33.994Z,99.99
2017-09-12T02:46:56.744Z,99.99
2017-09-12T02:48:18.551Z,99.99
2017-09-12T02:49:39.384Z,99.99
2017-09-12T02:51:01.897Z,99.99
2017-09-12T02:52:24.384Z,99.99
2017-09-12T02:53:46.946Z,99.99
2017-09-12T02:55:09.093Z,99.99
2017-09-12T02:56:30.904Z,99.99
2017-09-12T02:57:53.296Z,99.99
2017-09-12T02:59:14.555Z,99.99
2017-09-12T03:00:36.689Z,99.99
2017-09-12T03:01:58.256Z,99.99
2017-09-12T03:03:20.427Z,99.99
2017-09-12T03:04:42.644Z,99.99
2017-09-12T03:06:04.906Z,99.99
2017-09-12T03:07:27.053Z,99.99
2017-09-12T03:08:49.458Z,99.99
2017-09-12T03:10:10.943Z,99.99
2017-09-12T03:11:32.778Z,99.99
2017-09-12T03:12:54.595Z,99.99
2017-09-12T03:14:16.692Z,99.99
2017-09-12T03:15:38.566Z,99.99
2017-09-12T03:17:00.394Z,99.99
2017-09-12T03:18:22.524Z,99.99
2017-09-12T03:19:44.259Z,99.99
2017-09-12T03:21:06.377Z,99.99
2017-09-12T03:22:28.510Z,99.99
2017-09-12T03:23:50.372Z,99.99
2017-09-12T03:25:12.916Z,99.99
2017-09-12T03:26:34.392Z,99.99
2017-09-12T03:27:56.582Z,99.99
2017-09-12T03:29:18.080Z,99.99
2017-09-12T03:30:40.637Z,99.99
2017-09-12T03:32:02.780Z,99.99
2017-09-12T03:33:24.373Z,99.99
2017-09-12T03:34:45.876Z,99.99
2017-09-12T03:36:07.623Z,99.99
2017-09-12T03:37:29.732Z,99.99
2017-09-12T03:38:51.918Z,99.99
2017-09-12T03:40:14.222Z,99.99
2017-09-12T03:41:36.343Z,99.99
2017-09-12T03:42:58.499Z,99.99
2017-09-12T03:44:20.320Z,99.99
2017-09-12T03:45:42.441Z,99.99
2017-09-12T03:47:04.654Z,99.99
2017-09-12T03:48:26.467Z,99.99
2017-09-12T03:49:47.645Z,99.99
2017-09-12T03:51:09.240Z,99.99
2017-09-12T03:52:31.642Z,99.99
2017-09-12T03:53:53.153Z,99.99
2017-09-12T03:55:14.992Z,99.99
2017-09-12T03:56:37.120Z,99.99
2017-09-12T03:57:59.936Z,99.99
2017-09-12T03:59:21.757Z,99.99
2017-09-12T04:00:43.274Z,99.99
2017-09-12T04:02:05.721Z,99.99
2017-09-12T04:03:27.961Z,99.99
2017-09-12T04:04:50.119Z,99.99
2017-09-12T04:06:12.001Z,99.99
2017-09-12T04:07:33.942Z,99.99
2017-09-12T04:08:56.182Z,99.99
2017-09-12T04:10:18.637Z,99.99
2017-09-12T04:11:40.141Z,99.99
2017-09-12T04:13:02.282Z,99.99
2017-09-12T04:14:24.732Z,99.99
2017-09-12T04:15:46.540Z,99.99
2017-09-12T04:17:07.702Z,99.99
2017-09-12T04:18:29.602Z,99.99
2017-09-12T04:19:52.058Z,99.99
2017-09-12T04:21:14.262Z,99.99
2017-09-12T04:22:35.750Z,99.99
2017-09-12T04:23:57.262Z,99.99
2017-09-12T04:25:19.655Z,99.99
2017-09-12T04:26:41.472Z,99.99
2017-09-12T04:28:03.323Z,99.99
2017-09-12T04:29:25.141Z,99.99
2017-09-12T04:30:47.592Z,99.99
2017-09-12T04:32:09.341Z,99.99
2017-09-12T04:33:31.182Z,99.99
2017-09-12T04:34:52.701Z,99.99
2017-09-12T04:36:15.401Z,99.99
2017-09-12T04:37:37.532Z,99.99
2017-09-12T04:38:59.994Z,99.99
2017-09-12T04:40:21.825Z,99.99
2017-09-12T04:41:44.625Z,99.99
2017-09-12T04:43:06.122Z,99.99
2017-09-12T04:44:28.265Z,99.99
2017-09-12T04:45:50.172Z,99.99
2017-09-12T04:47:12.292Z,99.99
2017-09-12T04:48:34.119Z,99.99
2017-09-12T04:49:55.951Z,99.99
2017-09-12T04:51:18.091Z,99.99
2017-09-12T04:52:40.634Z,99.99
2017-09-12T04:54:02.785Z,99.99
2017-09-12T04:55:24.283Z,99.99
2017-09-12T04:56:46.162Z,99.99
2017-09-12T04:58:08.643Z,99.99
2017-09-12T04:59:30.932Z,99.99
2017-09-12T05:00:53.182Z,99.99
2017-09-12T05:02:15.312Z,99.99
2017-09-12T05:03:37.698Z,99.99
2017-09-12T05:04:59.835Z,99.99
2017-09-12T05:06:21.954Z,99.99
2017-09-12T05:07:43.776Z,99.99
2017-09-12T05:09:05.835Z,99.99
2017-09-12T05:10:27.962Z,99.99
2017-09-12T05:11:49.765Z,99.99
2017-09-12T05:13:11.923Z,99.99
2017-09-12T05:14:34.030Z,99.99
2017-09-12T05:15:56.154Z,99.99
2017-09-12T05:17:18.303Z,99.99
2017-09-12T05:18:40.767Z,99.99
2017-09-12T05:20:02.508Z,99.99
2017-09-12T05:21:24.652Z,99.99
2017-09-12T05:22:46.785Z,99.99
2017-09-12T05:24:08.305Z,99.99
2017-09-12T05:25:30.363Z,99.99
2017-09-12T05:26:52.521Z,99.99
2017-09-12T05:28:14.334Z,99.99
2017-09-12T05:29:36.152Z,99.99
2017-09-12T05:30:58.307Z,99.99
2017-09-12T05:32:20.492Z,99.99
2017-09-12T05:33:42.700Z,99.99
2017-09-12T05:35:04.523Z,99.99
2017-09-12T05:36:26.924Z,99.99
2017-09-12T05:37:49.069Z,99.99
2017-09-12T05:39:11.283Z,99.99
2017-09-12T05:40:33.415Z,99.99
2017-09-12T05:41:55.544Z,99.99
2017-09-12T05:43:18.039Z,99.99
2017-09-12T05:44:39.853Z,99.99
2017-09-12T05:46:01.693Z,99.99
2017-09-12T05:47:24.104Z,99.99
2017-09-12T05:48:45.923Z,99.99
2017-09-12T05:50:07.746Z,99.99
2017-09-12T05:51:29.873Z,99.99
2017-09-12T05:52:51.953Z,99.99
2017-09-12T05:54:13.449Z,99.99
2017-09-12T05:55:35.262Z,99.99
2017-09-12T05:56:56.772Z,99.99
2017-09-12T05:58:19.492Z,99.99
2017-09-12T05:59:41.353Z,99.99
2017-09-12T06:01:03.504Z,99.99
2017-09-12T06:02:25.960Z,99.99
2017-09-12T06:03:48.393Z,99.99
2017-09-12T06:05:10.860Z,99.99
2017-09-12T06:06:32.694Z,99.99
2017-09-12T06:07:54.838Z,99.99
2017-09-12T06:09:17.534Z,99.99
2017-09-12T06:10:39.664Z,99.99
2017-09-12T06:12:01.483Z,99.99
2017-09-12T06:13:23.697Z,99.99
2017-09-12T06:14:45.916Z,99.99
2017-09-12T06:16:08.355Z,99.99
2017-09-12T06:17:30.554Z,99.99
2017-09-12T06:18:52.747Z,99.99
2017-09-12T06:20:15.169Z,99.99
2017-09-12T06:21:36.673Z,99.99
2017-09-12T06:22:58.466Z,99.99
2017-09-12T06:24:20.875Z,99.99
2017-09-12T06:25:42.564Z,99.99
2017-09-12T06:27:03.693Z,99.99
2017-09-12T06:28:25.735Z,99.99
2017-09-12T06:29:47.709Z,99.99
2017-09-12T06:31:09.753Z,99.99
2017-09-12T06:32:31.873Z,99.99
2017-09-12T06:33:53.644Z,99.99
2017-09-12T06:35:16.069Z,99.99
2017-09-12T06:36:38.205Z,99.99
2017-09-12T06:38:00.364Z,99.99
2017-09-12T06:39:21.875Z,99.99
2017-09-12T06:40:43.406Z,99.99
2017-09-12T06:42:06.202Z,99.99
2017-09-12T06:43:28.668Z,99.99
2017-09-12T06:44:50.484Z,99.99
2017-09-12T06:46:12.279Z,99.99
2017-09-12T06:47:34.658Z,99.99
2017-09-12T06:48:56.955Z,99.99
2017-09-12T06:50:19.091Z,99.99
2017-09-12T06:51:41.574Z,99.99
2017-09-12T06:53:04.442Z,99.99
2017-09-12T06:54:26.293Z,99.99
2017-09-12T06:55:48.448Z,99.99
2017-09-12T06:57:10.573Z,99.99
2017-09-12T06:58:32.423Z,99.99
2017-09-12T06:59:53.925Z,99.99
2017-09-12T07:01:16.396Z,99.99
2017-09-12T07:02:38.986Z,99.99
2017-09-12T07:04:01.764Z,99.99
2017-09-12T07:05:23.584Z,99.99
2017-09-12T07:06:45.103Z,99.99
2017-09-12T07:08:06.603Z,99.99
2017-09-12T07:09:28.484Z,99.99
2017-09-12T07:10:50.965Z,99.99
2017-09-12T07:12:13.121Z,99.99
2017-09-12T07:13:34.943Z,99.99
2017-09-12T07:14:57.437Z,99.99
2017-09-12T07:16:19.438Z,99.99
2017-09-12T07:17:41.904Z,99.99
2017-09-12T07:19:03.398Z,99.99
2017-09-12T07:20:25.903Z,99.99
2017-09-12T07:21:47.720Z,99.99
2017-09-12T07:23:09.564Z,99.99
2017-09-12T07:24:31.061Z,99.99
2017-09-12T07:25:53.216Z,99.99
2017-09-12T07:27:14.699Z,99.99
2017-09-12T07:28:37.046Z,99.99
2017-09-12T07:29:58.869Z,99.99
2017-09-12T07:31:21.724Z,99.99
2017-09-12T07:32:43.554Z,99.99
2017-09-12T07:34:05.493Z,99.99
2017-09-12T07:35:26.673Z,99.99
2017-09-12T07:36:48.860Z,99.99
2017-09-12T07:38:11.000Z,99.99
2017-09-12T07:39:33.466Z,99.99
2017-09-12T07:40:55.999Z,99.99
2017-09-12T07:42:18.844Z,99.99
2017-09-12T07:43:40.985Z,99.99
2017-09-12T07:45:02.823Z,99.99
2017-09-12T07:46:24.652Z,99.99
2017-09-12T07:47:47.473Z,99.99
2017-09-12T07:49:08.966Z,99.99
2017-09-12T07:50:30.549Z,99.99
2017-09-12T07:51:52.814Z,99.99
2017-09-12T07:53:14.974Z,99.99
2017-09-12T07:54:37.126Z,99.99
2017-09-12T07:55:59.465Z,99.99
2017-09-12T07:57:21.343Z,99.99
2017-09-12T07:58:43.479Z,99.99
2017-09-12T08:00:05.614Z,99.99
2017-09-12T08:01:29.320Z,99.99
2017-09-12T08:02:53.528Z,99.99
2017-09-12T08:04:16.436Z,99.99
2017-09-12T08:05:40.395Z,99.99
2017-09-12T08:07:03.724Z,99.99
2017-09-12T08:08:26.923Z,99.99
2017-09-12T08:09:49.493Z,99.99
2017-09-12T08:11:11.703Z,99.99
2017-09-12T08:12:33.822Z,99.99
2017-09-12T08:13:55.983Z,99.99
2017-09-12T08:15:18.203Z,99.99
2017-09-12T08:16:40.421Z,99.99
2017-09-12T08:18:02.302Z,99.99
2017-09-12T08:19:23.821Z,99.99
2017-09-12T08:20:46.633Z,99.99
2017-09-12T08:22:08.127Z,99.99
2017-09-12T08:23:30.257Z,99.99
2017-09-12T08:24:52.683Z,99.99
2017-09-12T08:26:15.281Z,99.99
2017-09-12T08:27:37.746Z,99.99
2017-09-12T08:29:00.283Z,99.99
2017-09-12T08:30:22.511Z,99.99
2017-09-12T08:31:45.242Z,99.99
2017-09-12T08:33:07.393Z,99.99
2017-09-12T08:34:29.853Z,99.99
2017-09-12T08:35:51.363Z,99.99
2017-09-12T08:37:14.098Z,99.99
2017-09-12T08:38:36.356Z,99.99
2017-09-12T08:39:58.521Z,99.64
2017-09-12T08:41:21.001Z,99.16
2017-09-12T08:42:43.172Z,99.88
2017-09-12T08:44:05.352Z,99.99
2017-09-12T08:45:27.242Z,99.99
2017-09-12T08:46:49.402Z,99.99
2017-09-12T08:48:10.960Z,99.99
2017-09-12T08:49:32.813Z,99.99
2017-09-12T08:50:54.982Z,99.99
2017-09-12T08:52:16.511Z,99.99
2017-09-12T08:53:38.941Z,99.99
2017-09-12T08:55:01.094Z,99.99
2017-09-12T08:56:22.924Z,99.99
2017-09-12T08:57:45.459Z,99.99
2017-09-12T08:59:07.950Z,99.99
2017-09-12T09:00:30.101Z,99.99
2017-09-12T09:01:51.943Z,99.99
2017-09-12T09:03:14.514Z,99.99
2017-09-12T09:04:36.947Z,99.99
2017-09-12T09:05:59.099Z,99.26
2017-09-12T09:07:20.917Z,99.99
2017-09-12T09:08:42.747Z,99.83
2017-09-12T09:10:04.493Z,99.93
2017-09-12T09:11:26.713Z,98.82
2017-09-12T09:12:48.314Z,99.64
2017-09-12T09:14:10.472Z,99.99
2017-09-12T09:15:32.741Z,98.1
2017-09-12T09:16:54.261Z,98.58
2017-09-12T09:18:16.089Z,98.49
2017-09-12T09:19:38.539Z,99.16
2017-09-12T09:21:00.810Z,99.35
2017-09-12T09:22:22.969Z,99.26
2017-09-12T09:23:45.441Z,98.49
2017-09-12T09:25:07.622Z,99.06
2017-09-12T09:26:30.034Z,99.26
2017-09-12T09:27:52.502Z,99.99
2017-09-12T09:29:14.053Z,99.99
2017-09-12T09:30:36.193Z,98.72
2017-09-12T09:31:58.607Z,97.96
2017-09-12T09:33:20.762Z,95.79
2017-09-12T09:34:42.931Z,95.94
2017-09-12T09:36:05.081Z,96.61
2017-09-12T09:37:27.457Z,97.38
2017-09-12T09:38:48.990Z,98.19
2017-09-12T09:40:11.471Z,99.3
2017-09-12T09:41:33.631Z,99.3
2017-09-12T09:42:55.486Z,99.99
2017-09-12T09:44:17.402Z,99.99
2017-09-12T09:45:39.251Z,99.99
2017-09-12T09:47:01.140Z,99.73
2017-09-12T09:48:23.972Z,99.99
2017-09-12T09:49:46.102Z,99.99
2017-09-12T09:51:08.563Z,99.99
2017-09-12T09:52:30.398Z,99.99
2017-09-12T09:53:52.953Z,99.99
2017-09-12T09:55:15.409Z,99.99
2017-09-12T09:56:37.551Z,99.99
2017-09-12T09:57:59.773Z,99.99
2017-09-12T09:59:22.261Z,98.72
2017-09-12T10:00:43.440Z,97.09
2017-09-12T10:02:05.612Z,95.79
2017-09-12T10:03:27.742Z,93.91
2017-09-12T10:04:50.143Z,94.73
2017-09-12T10:06:12.623Z,96.22
2017-09-12T10:07:34.791Z,97.42
2017-09-12T10:08:56.301Z,98.34
2017-09-12T10:10:18.909Z,99.4
2017-09-12T10:11:40.422Z,99.99
2017-09-12T10:13:02.569Z,99.99
2017-09-12T10:14:24.826Z,99.99
2017-09-12T10:15:47.532Z,99.99
2017-09-12T10:17:09.671Z,99.99
2017-09-12T10:18:31.838Z,99.99
2017-09-12T10:19:53.997Z,99.99
2017-09-12T10:21:16.155Z,99.68
2017-09-12T10:22:37.980Z,99.78
2017-09-12T10:24:00.456Z,99.99
2017-09-12T10:25:22.593Z,99.99
2017-09-12T10:26:44.669Z,99.99
2017-09-12T10:28:06.501Z,98.24
2017-09-12T10:29:28.646Z,97.86
2017-09-12T10:30:49.942Z,97.14
2017-09-12T10:32:12.323Z,96.03
2017-09-12T10:33:34.458Z,92.85
2017-09-12T10:34:56.926Z,92.85
2017-09-12T10:36:19.140Z,93.72
2017-09-12T10:37:40.962Z,92.9
2017-09-12T10:39:03.416Z,90.63
2017-09-12T10:40:25.592Z,88.93
2017-09-12T10:41:47.113Z,88.75
2017-09-12T10:43:09.561Z,88.4
2017-09-12T10:44:31.733Z,87.92
2017-09-12T10:45:53.593Z,88.31
2017-09-12T10:47:15.734Z,88.4
2017-09-12T10:48:38.613Z,86.8
2017-09-12T10:50:00.445Z,85.45
2017-09-12T10:51:22.589Z,85.11
2017-09-12T10:52:44.730Z,85.55
2017-09-12T10:54:07.272Z,86.13
2017-09-12T10:55:29.733Z,85.06
2017-09-12T10:56:51.902Z,85.06
2017-09-12T10:58:13.720Z,83.75
2017-09-12T10:59:36.465Z,85.55
2017-09-12T11:00:58.402Z,85.26
2017-09-12T11:02:20.238Z,84.44
2017-09-12T11:03:42.375Z,83.19
2017-09-12T11:05:04.458Z,84.25
2017-09-12T11:06:26.952Z,85.41
2017-09-12T11:07:49.108Z,86.24
2017-09-12T11:09:10.993Z,89.13
2017-09-12T11:10:33.516Z,89.13
2017-09-12T11:11:55.448Z,87.88
2017-09-12T11:13:17.292Z,87.2
2017-09-12T11:14:39.442Z,87.73
2017-09-12T11:16:01.562Z,87.24
2017-09-12T11:17:23.486Z,87.4
2017-09-12T11:18:45.958Z,86.77
2017-09-12T11:20:08.117Z,87.54
2017-09-12T11:21:30.881Z,90
2017-09-12T11:22:53.040Z,88.75
2017-09-12T11:24:14.881Z,89.04
2017-09-12T11:25:37.463Z,88.65
2017-09-12T11:27:00.000Z,85.67
2017-09-12T11:28:21.505Z,87.6
2017-09-12T11:29:43.739Z,86.54
2017-09-12T11:31:05.892Z,87.02
2017-09-12T11:32:27.424Z,86.25
2017-09-12T11:33:49.892Z,86.44
2017-09-12T11:35:12.042Z,86.92
2017-09-12T11:36:34.244Z,86.11
2017-09-12T11:37:56.185Z,86.4
2017-09-12T11:39:18.334Z,87.36
2017-09-12T11:40:40.588Z,87.36
2017-09-12T11:42:03.090Z,86.49
2017-09-12T11:43:25.515Z,85.86
2017-09-12T11:44:47.975Z,86.54
2017-09-12T11:46:10.543Z,88.61
2017-09-12T11:47:32.682Z,88.13
2017-09-12T11:48:55.527Z,87.74
2017-09-12T11:50:17.679Z,89.43
2017-09-12T11:51:40.152Z,90.4
2017-09-12T11:53:02.012Z,89.82
2017-09-12T11:54:24.154Z,97.42
2017-09-12T11:55:46.639Z,99.99
2017-09-12T11:57:08.124Z,99.99
2017-09-12T11:58:30.643Z,99.99
2017-09-12T11:59:52.760Z,99.99
2017-09-12T12:01:14.324Z,99.99
2017-09-12T12:02:36.501Z,99.99
2017-09-12T12:03:58.656Z,99.99
2017-09-12T12:05:21.124Z,99.99
2017-09-12T12:06:43.594Z,99.99
2017-09-12T12:08:06.096Z,99.99
2017-09-12T12:09:28.555Z,99.99
2017-09-12T12:10:50.964Z,99.99
2017-09-12T12:12:13.102Z,99.99
2017-09-12T12:13:35.565Z,99.99
2017-09-12T12:14:58.025Z,99.99
2017-09-12T12:16:20.289Z,99.99
2017-09-12T12:17:42.453Z,99.99
2017-09-12T12:19:04.697Z,99.99
2017-09-12T12:20:26.195Z,99.99
2017-09-12T12:21:49.004Z,99.99
2017-09-12T12:23:11.173Z,99.99
2017-09-12T12:24:32.690Z,99.99
2017-09-12T12:25:54.835Z,99.99
2017-09-12T12:27:17.341Z,99.99
2017-09-12T12:28:39.174Z,99.99
2017-09-12T12:30:00.995Z,99.99
2017-09-12T12:31:23.237Z,99.99
2017-09-12T12:32:45.706Z,99.99
2017-09-12T12:34:08.297Z,99.99
2017-09-12T12:35:30.628Z,99.99
2017-09-12T12:36:52.773Z,99.99
2017-09-12T12:38:14.901Z,99.99
2017-09-12T12:39:37.045Z,99.99
2017-09-12T12:40:59.187Z,99.99
2017-09-12T12:42:21.355Z,99.99
2017-09-12T12:43:44.299Z,99.99
2017-09-12T12:45:06.441Z,99.99
2017-09-12T12:46:28.630Z,99.99
2017-09-12T12:47:50.792Z,99.99
2017-09-12T12:49:13.243Z,99.99
2017-09-12T12:50:35.814Z,99.99
2017-09-12T12:51:58.460Z,99.99
2017-09-12T12:53:20.632Z,99.99
2017-09-12T12:54:43.429Z,99.99
2017-09-12T12:56:05.908Z,99.99
2017-09-12T12:57:27.912Z,99.99
2017-09-12T12:58:49.782Z,99.99
2017-09-12T13:00:12.226Z,99.99
2017-09-12T13:01:34.686Z,99.99
2017-09-12T13:02:57.295Z,99.99
2017-09-12T13:04:19.785Z,99.99
2017-09-12T13:05:42.276Z,99.99
2017-09-12T13:07:04.418Z,99.99
2017-09-12T13:08:26.702Z,99.99
2017-09-12T13:09:48.857Z,99.99
2017-09-12T13:11:11.639Z,99.99
2017-09-12T13:12:33.482Z,99.99
2017-09-12T13:13:55.984Z,99.99
2017-09-12T13:15:17.503Z,99.99
2017-09-12T13:16:39.924Z,99.99
2017-09-12T13:18:02.080Z,99.99
2017-09-12T13:19:23.654Z,99.99
2017-09-12T13:20:45.551Z,99.99
2017-09-12T13:22:08.313Z,99.99
2017-09-12T13:23:30.193Z,99.99
2017-09-12T13:24:52.376Z,99.99
2017-09-12T13:26:14.963Z,99.99
2017-09-12T13:27:36.711Z,99.99
2017-09-12T13:28:58.862Z,99.99
2017-09-12T13:30:20.698Z,99.99
2017-09-12T13:31:42.586Z,99.99
2017-09-12T13:33:04.751Z,99.99
2017-09-12T13:34:26.267Z,99.99
2017-09-12T13:35:48.624Z,99.99
2017-09-12T13:37:11.103Z,99.99
2017-09-12T13:38:33.786Z,99.99
2017-09-12T13:39:56.132Z,99.99
2017-09-12T13:41:18.281Z,99.99
2017-09-12T13:42:39.843Z,99.99
2017-09-12T13:44:02.645Z,99.99
2017-09-12T13:45:25.103Z,99.99
2017-09-12T13:46:47.603Z,99.99
2017-09-12T13:48:09.443Z,99.99
2017-09-12T13:49:31.538Z,99.99
2017-09-12T13:50:54.085Z,99.99
2017-09-12T13:52:15.973Z,99.99
2017-09-12T13:53:38.122Z,99.99
2017-09-12T13:55:00.354Z,99.99
2017-09-12T13:56:22.839Z,99.99
2017-09-12T13:57:44.825Z,99.99
2017-09-12T13:59:07.308Z,99.99
2017-09-12T14:00:29.933Z,99.99
2017-09-12T14:01:52.083Z,99.99
2017-09-12T14:03:14.241Z,99.99
2017-09-12T14:04:36.370Z,99.99
2017-09-12T14:05:58.211Z,99.99
2017-09-12T14:07:20.373Z,99.99
2017-09-12T14:08:42.825Z,99.99
2017-09-12T14:10:05.452Z,99.99
2017-09-12T14:11:27.954Z,99.99
2017-09-12T14:12:50.263Z,99.99
2017-09-12T14:14:12.431Z,99.99
2017-09-12T14:15:34.664Z,99.99
2017-09-12T14:16:57.085Z,99.99
2017-09-12T14:18:19.654Z,99.99
2017-09-12T14:19:41.800Z,99.99
2017-09-12T14:21:03.979Z,99.99
2017-09-12T14:22:26.159Z,99.99
2017-09-12T14:23:48.006Z,99.99
2017-09-12T14:25:09.581Z,99.99
2017-09-12T14:26:31.823Z,99.99
2017-09-12T14:27:54.558Z,99.99
2017-09-12T14:29:16.877Z,99.99
2017-09-12T14:30:38.400Z,99.99
2017-09-12T14:32:00.564Z,99.99
2017-09-12T14:33:23.017Z,99.99
2017-09-12T14:34:45.489Z,99.99
2017-09-12T14:36:08.022Z,99.99
2017-09-12T14:37:29.891Z,99.99
2017-09-12T14:38:52.683Z,99.99
2017-09-12T14:40:15.153Z,99.99
2017-09-12T14:41:37.754Z,99.99
2017-09-12T14:43:00.264Z,99.99
2017-09-12T14:44:22.674Z,99.99
2017-09-12T14:45:45.152Z,99.99
2017-09-12T14:47:07.620Z,99.99
2017-09-12T14:48:30.153Z,99.99
2017-09-12T14:49:52.215Z,99.99
2017-09-12T14:51:14.367Z,99.99
2017-09-12T14:52:36.642Z,99.99
2017-09-12T14:53:58.789Z,99.99
2017-09-12T14:55:21.310Z,99.99
2017-09-12T14:56:43.792Z,99.99
2017-09-12T14:58:05.443Z,99.99
2017-09-12T14:59:27.593Z,99.99
2017-09-12T15:00:49.725Z,99.99
2017-09-12T15:02:11.592Z,99.99
2017-09-12T15:03:34.084Z,99.99
2017-09-12T15:04:56.569Z,99.99
2017-09-12T15:06:18.740Z,99.99
2017-09-12T15:07:40.902Z,99.99
2017-09-12T15:09:03.055Z,99.99
2017-09-12T15:10:25.532Z,99.99
2017-09-12T15:11:47.773Z,99.99
2017-09-12T15:13:10.269Z,99.99
2017-09-12T15:14:32.787Z,99.99
2017-09-12T15:15:55.382Z,99.99
2017-09-12T15:17:18.120Z,99.99
2017-09-12T15:18:40.601Z,99.99
2017-09-12T15:20:02.442Z,99.99
2017-09-12T15:21:24.926Z,99.99
2017-09-12T15:22:47.749Z,99.99
2017-09-12T15:24:09.582Z,99.99
2017-09-12T15:25:31.742Z,99.99
2017-09-12T15:26:53.907Z,99.99
2017-09-12T15:28:16.650Z,99.99
2017-09-12T15:29:38.825Z,99.99
2017-09-12T15:31:01.341Z,99.99
2017-09-12T15:32:23.825Z,99.99
2017-09-12T15:33:46.415Z,99.99
2017-09-12T15:35:08.921Z,99.99
2017-09-12T15:36:30.779Z,99.99
2017-09-12T15:37:53.268Z,99.99
2017-09-12T15:39:15.737Z,99.99
2017-09-12T15:40:38.223Z,99.99
2017-09-12T15:42:00.061Z,99.99
2017-09-12T15:43:22.218Z,99.99
2017-09-12T15:44:44.942Z,99.99
2017-09-12T15:46:06.795Z,99.99
2017-09-12T15:47:29.314Z,99.99
2017-09-12T15:48:51.909Z,99.99
2017-09-12T15:50:14.321Z,99.99
2017-09-12T15:51:36.170Z,99.99
2017-09-12T15:52:58.685Z,99.99
2017-09-12T15:54:20.992Z,99.99
2017-09-12T15:55:43.074Z,99.99
2017-09-12T15:57:05.219Z,99.99
2017-09-12T15:58:27.397Z,99.99
2017-09-12T15:59:49.624Z,99.99
2017-09-12T16:01:12.363Z,99.99
2017-09-12T16:02:34.853Z,99.99
2017-09-12T16:03:57.123Z,99.99
2017-09-12T16:05:19.844Z,99.99
2017-09-12T16:06:42.559Z,99.99
2017-09-12T16:08:04.713Z,99.99
2017-09-12T16:09:27.244Z,99.99
2017-09-12T16:10:49.740Z,99.99
2017-09-12T16:12:12.247Z,99.99
2017-09-12T16:13:34.748Z,99.99
2017-09-12T16:14:56.592Z,99.99
2017-09-12T16:16:18.754Z,99.99
2017-09-12T16:17:40.634Z,99.99
2017-09-12T16:19:03.114Z,99.99
2017-09-12T16:20:25.592Z,99.99
2017-09-12T16:21:47.762Z,99.99
2017-09-12T16:23:10.443Z,99.99
2017-09-12T16:24:32.941Z,99.99
2017-09-12T16:25:55.124Z,99.99
2017-09-12T16:27:17.329Z,99.99
2017-09-12T16:28:40.175Z,99.99
2017-09-12T16:30:02.182Z,99.99
2017-09-12T16:31:24.371Z,99.99
2017-09-12T16:32:46.616Z,99.99
2017-09-12T16:34:09.062Z,99.99
2017-09-12T16:35:31.225Z,99.99
2017-09-12T16:36:53.064Z,99.99
2017-09-12T16:38:14.911Z,99.99
2017-09-12T16:39:36.901Z,99.99
2017-09-12T16:40:59.065Z,99.99
2017-09-12T16:42:21.365Z,99.99
2017-09-12T16:43:43.534Z,99.99
2017-09-12T16:45:05.903Z,99.99
2017-09-12T16:46:28.050Z,99.99
2017-09-12T16:47:50.209Z,99.99
2017-09-12T16:49:12.366Z,99.99
2017-09-12T16:50:34.762Z,99.99
2017-09-12T16:51:56.935Z,99.99
2017-09-12T16:53:19.073Z,99.99
2017-09-12T16:54:41.354Z,99.99
2017-09-12T16:56:04.103Z,99.99
2017-09-12T16:57:26.145Z,99.99
2017-09-12T16:58:48.306Z,99.99
2017-09-12T17:00:10.560Z,99.99
2017-09-12T17:01:32.983Z,99.99
2017-09-12T17:02:55.146Z,99.99
2017-09-12T17:04:17.639Z,99.99
2017-09-12T17:05:39.793Z,99.99
2017-09-12T17:07:02.254Z,99.99
2017-09-12T17:08:24.411Z,99.99
2017-09-12T17:09:46.882Z,99.99
2017-09-12T17:11:09.353Z,99.99
2017-09-12T17:12:31.886Z,99.99
2017-09-12T17:13:54.407Z,99.99
2017-09-12T17:15:16.573Z,99.99
2017-09-12T17:16:38.741Z,99.99
2017-09-12T17:18:01.265Z,99.99
2017-09-12T17:19:23.119Z,99.99
2017-09-12T17:20:45.281Z,99.99
2017-09-12T17:22:07.776Z,99.99
2017-09-12T17:23:30.534Z,99.99
2017-09-12T17:24:52.703Z,99.99
2017-09-12T17:26:14.938Z,99.99
2017-09-12T17:27:36.787Z,99.99
2017-09-12T17:28:59.534Z,99.99
2017-09-12T17:30:21.758Z,99.99
2017-09-12T17:31:43.890Z,99.99
2017-09-12T17:33:06.375Z,99.99
2017-09-12T17:34:29.128Z,99.99
2017-09-12T17:35:51.304Z,99.99
2017-09-12T17:37:13.153Z,99.99
2017-09-12T17:38:35.673Z,99.99
2017-09-12T17:39:58.122Z,99.99